Time;durP1;ratioP1;P1;durP2;ratioP2;P2;SDS_P1;SDS_P2;PMS_P1;PMS_P2;Temp;Humidity;BMP_temperature;BMP_pressure;BME280_temperature;BME280_humidity;BME280_pressure;Samples;Min_cycle;Max_cycle;Signal;HPM_P1;HPM_P2
2022/03/21 06:13:29;;;;;;;;;;;;;;;8.27;51.34;98268.78;4227831;27;10290;-64
2022/03/21 06:15:35;;;;;;;;;;;;;;;8.32;51.29;98275.31;4212783;28;5697;-64
2022/03/21 06:17:38;;;;;;;;;;;;;;;8.37;51.33;98280.19;4212991;28;5735;-63
2022/03/21 06:19:40;;;;;;;;;;;;;;;8.42;51.27;98284.06;4211852;28;5708;-64
2022/03/21 06:21:42;;;;;;;;;;;;;;;8.42;51.02;98277.97;4211658;28;6348;-64
2022/03/21 06:23:44;;;;;;;;;;;;;;;8.47;51.04;98275.72;4207660;28;5744;-63
2022/03/21 06:25:45;;;;;;;;;;;;;;;8.51;51.11;98277.09;4218469;28;6579;-64
2022/03/21 06:27:48;;;;;;;;;;;;;;;8.57;51.03;98276.50;4212602;28;6346;-64
2022/03/21 06:29:50;;;;;;;;;;;;;;;8.63;51.05;98285.66;4220261;28;5696;-64
2022/03/21 06:31:51;;;;;;;;;;;;;;;8.67;50.88;98293.13;4210850;28;5685;-64
2022/03/21 06:33:53;;;;;;;;;;;;;;;8.70;50.75;98281.47;4210749;28;5787;-64
2022/03/21 06:35:57;;;;;;;;;;;;;;;8.72;50.87;98287.41;4212107;28;6378;-64
2022/03/21 06:37:58;;;;;;;;;;;;;;;8.75;50.73;98293.25;4207098;28;5693;-62
2022/03/21 06:40:00;;;;;;;;;;;;;;;8.56;50.45;98306.47;4211549;28;5231;-63
2022/03/21 06:42:02;;;;;;;;;;;;;;;8.55;51.01;98304.81;4215178;28;7708;-63
2022/03/21 06:44:04;;;;;;;;;;;;;;;8.31;51.33;98310.53;4219158;28;5744;-63
2022/03/21 06:46:06;;;;;;;;;;;;;;;8.45;51.27;98307.47;4212426;28;6401;-64
2022/03/21 06:48:09;;;;;;;;;;;;;;;8.61;51.33;98312.19;4208391;28;5906;-64
2022/03/21 06:50:11;;;;;;;;;;;;;;;8.74;50.97;98322.41;4203961;28;5768;-65
2022/03/21 06:52:13;;;;;;;;;;;;;;;8.86;51.20;98317.78;4211917;28;5736;-64
2022/03/21 06:54:15;;;;;;;;;;;;;;;8.89;50.81;98312.19;4210525;28;5819;-65
2022/03/21 06:56:17;;;;;;;;;;;;;;;8.87;50.22;98319.44;4210750;28;5861;-65
2022/03/21 06:58:18;;;;;;;;;;;;;;;8.86;51.02;98312.50;4212182;28;5799;-63
2022/03/21 07:00:20;;;;;;;;;;;;;;;8.92;50.86;98311.91;4208857;28;6008;-64
2022/03/21 07:02:23;;;;;;;;;;;;;;;8.96;51.23;98316.75;4209555;28;5863;-63
2022/03/21 07:04:26;;;;;;;;;;;;;;;8.97;51.40;98320.22;4209281;28;6519;-63
2022/03/21 07:06:31;;;;;;;;;;;;;;;8.82;51.25;98322.47;4207821;28;5787;-64
2022/03/21 07:08:32;;;;;;;;;;;;;;;8.64;51.76;98319.78;4207023;28;6552;-64
2022/03/21 07:10:34;;;;;;;;;;;;;;;8.54;52.95;98326.06;4200131;28;5782;-64
2022/03/21 07:12:37;;;;;;;;;;;;;;;8.58;53.12;98325.63;4202309;28;5775;-64
2022/03/21 07:14:39;;;;;;;;;;;;;;;8.66;53.33;98322.28;4197014;28;6581;-64
2022/03/21 07:16:40;;;;;;;;;;;;;;;8.70;53.65;98324.47;4200860;28;5696;-64
2022/03/21 07:18:43;;;;;;;;;;;;;;;8.62;53.08;98321.75;4194039;28;5681;-65
2022/03/21 07:20:44;;;;;;;;;;;;;;;8.51;53.19;98327.19;4201055;28;5713;-64
2022/03/21 07:22:46;;;;;;;;;;;;;;;8.40;52.70;98330.81;4200332;28;5821;-65
2022/03/21 07:24:49;;;;;;;;;;;;;;;8.58;52.79;98333.53;4195732;28;5684;-64
2022/03/21 07:26:51;;;;;;;;;;;;;;;8.63;51.60;98331.31;4200109;28;5812;-64
2022/03/21 07:28:53;;;;;;;;;;;;;;;8.72;52.00;98334.88;4196918;28;5775;-65
2022/03/21 07:31:10;;;;;;;;;;;;;;;8.81;51.77;98338.47;4201121;28;5788;-64
2022/03/21 07:33:12;;;;;;;;;;;;;;;8.73;51.53;98334.75;4197849;28;5854;-64
2022/03/21 07:35:14;;;;;;;;;;;;;;;8.90;51.30;98343.69;4200886;28;5842;-64
2022/03/21 07:37:16;;;;;;;;;;;;;;;8.92;51.13;98344.38;4199730;28;5803;-64
2022/03/21 07:39:20;;;;;;;;;;;;;;;8.87;50.94;98340.53;4200548;28;6378;-64
2022/03/21 07:41:26;;;;;;;;;;;;;;;8.87;51.52;98343.16;4200505;28;5689;-64
2022/03/21 07:43:28;;;;;;;;;;;;;;;9.09;51.89;98339.34;4200766;28;5704;-64
2022/03/21 07:47:51;;;;;;;;;;;;;;;9.08;54.07;98354.34;4198801;28;5719;-64
2022/03/21 07:49:53;;;;;;;;;;;;;;;9.08;54.29;98356.97;4200530;28;5700;-65
2022/03/21 07:51:55;;;;;;;;;;;;;;;9.13;54.63;98346.78;4200162;28;5700;-64
2022/03/21 07:53:57;;;;;;;;;;;;;;;9.11;54.58;98355.84;4199532;28;6417;-64
2022/03/21 07:55:59;;;;;;;;;;;;;;;9.13;54.45;98352.06;4200518;28;5709;-65
2022/03/21 07:58:01;;;;;;;;;;;;;;;9.04;54.90;98359.03;4197079;28;5697;-64
2022/03/21 08:00:05;;;;;;;;;;;;;;;8.89;55.50;98364.94;4199536;28;5729;-65
2022/03/21 08:02:07;;;;;;;;;;;;;;;9.03;54.96;98361.84;4198832;28;5688;-64
2022/03/21 08:04:09;;;;;;;;;;;;;;;9.07;54.73;98354.47;4193238;28;5786;-65
2022/03/21 08:06:11;;;;;;;;;;;;;;;8.98;55.47;98358.81;4196637;28;5787;-65
2022/03/21 08:08:12;;;;;;;;;;;;;;;9.16;55.30;98359.69;4198819;28;5985;-65
2022/03/21 08:10:16;;;;;;;;;;;;;;;9.16;56.93;98357.06;4200197;28;5927;-65
2022/03/21 08:12:18;;;;;;;;;;;;;;;8.98;56.75;98353.53;4195144;28;5839;-65
2022/03/21 08:14:21;;;;;;;;;;;;;;;9.02;55.62;98352.25;4197833;28;5819;-63
2022/03/21 08:16:23;;;;;;;;;;;;;;;8.99;56.27;98355.19;4198763;28;5692;-64
2022/03/21 08:18:25;;;;;;;;;;;;;;;8.99;56.44;98344.66;4199947;28;5835;-64
2022/03/21 08:20:38;;;;;;;;;;;;;;;8.84;56.23;98354.00;4198794;28;5701;-64
2022/03/21 08:22:40;;;;;;;;;;;;;;;8.71;55.52;98347.22;4199978;28;6401;-63
2022/03/21 08:24:41;;;;;;;;;;;;;;;8.70;56.18;98355.28;4199542;28;5926;-63
2022/03/21 08:26:43;;;;;;;;;;;;;;;8.54;56.76;98345.34;4196646;28;5765;-63
2022/03/21 08:28:45;;;;;;;;;;;;;;;8.61;56.94;98354.34;4198879;28;5779;-63
2022/03/21 08:30:47;;;;;;;;;;;;;;;8.51;57.23;98350.06;4199901;28;6454;-63
2022/03/21 08:32:49;;;;;;;;;;;;;;;8.71;57.07;98355.13;4197556;28;5711;-63
2022/03/21 08:34:51;;;;;;;;;;;;;;;8.84;56.92;98359.28;4194608;28;5883;-62
2022/03/21 08:36:53;;;;;;;;;;;;;;;8.87;55.62;98348.44;4197047;28;5780;-64
2022/03/21 08:38:54;;;;;;;;;;;;;;;8.68;56.71;98352.78;4198182;28;5747;-64
2022/03/21 08:40:57;;;;;;;;;;;;;;;8.90;56.39;98353.41;4199538;28;6386;-64
2022/03/21 08:42:59;;;;;;;;;;;;;;;9.15;56.91;98360.66;4199954;28;5696;-64
2022/03/21 08:45:01;;;;;;;;;;;;;;;9.16;58.54;98356.22;4199862;28;5748;-64
2022/03/21 08:47:03;;;;;;;;;;;;;;;9.15;57.83;98357.19;4196835;28;5216;-63
2022/03/21 08:49:23;;;;;;;;;;;;;;;9.13;58.96;98352.06;4186918;28;5792;-64
2022/03/21 08:51:32;;;;;;;;;;;;;;;9.32;57.74;98349.34;4199942;28;5703;-63
2022/03/21 08:53:34;;;;;;;;;;;;;;;9.38;59.03;98352.38;4198259;28;5866;-64
2022/03/21 08:55:36;;;;;;;;;;;;;;;9.34;58.24;98346.56;4195815;28;5825;-64
2022/03/21 08:57:39;;;;;;;;;;;;;;;9.27;58.27;98348.94;4199454;28;5716;-64
2022/03/21 08:59:40;;;;;;;;;;;;;;;9.34;58.92;98341.28;4197127;28;5716;-64
2022/03/21 09:01:44;;;;;;;;;;;;;;;9.57;57.30;98336.41;4199523;28;5776;-64
2022/03/21 09:03:49;;;;;;;;;;;;;;;9.59;56.23;98342.38;4197301;28;5526;-64
2022/03/21 09:05:53;;;;;;;;;;;;;;;9.77;56.06;98339.75;4195672;28;6388;-64
2022/03/21 09:07:55;;;;;;;;;;;;;;;9.79;55.07;98333.34;4191482;28;6274;-64
2022/03/21 09:09:57;;;;;;;;;;;;;;;9.22;57.22;98332.72;4195983;28;6205;-64
2022/03/21 09:12:00;;;;;;;;;;;;;;;9.54;56.98;98329.63;4195462;28;5920;-64
2022/03/21 09:14:02;;;;;;;;;;;;;;;9.73;57.07;98328.66;4196881;28;5673;-64
2022/03/21 09:16:05;;;;;;;;;;;;;;;9.76;56.57;98331.00;4197410;28;5794;-64
2022/03/21 09:18:07;;;;;;;;;;;;;;;9.75;56.60;98320.59;4197556;28;5731;-64
2022/03/21 09:20:09;;;;;;;;;;;;;;;9.74;56.38;98325.06;4199206;28;6378;-64
2022/03/21 09:22:12;;;;;;;;;;;;;;;9.78;57.32;98329.03;4198742;28;5689;-63
2022/03/21 09:24:13;;;;;;;;;;;;;;;9.58;60.44;98336.25;4198896;28;5680;-63
2022/03/21 09:26:16;;;;;;;;;;;;;;;9.67;59.04;98339.00;4194951;28;5835;-64
2022/03/21 09:28:17;;;;;;;;;;;;;;;9.54;60.20;98331.44;4198667;28;6213;-64
2022/03/21 09:30:19;;;;;;;;;;;;;;;9.58;59.47;98330.16;4230483;28;5723;-64
2022/03/21 09:32:22;;;;;;;;;;;;;;;9.70;57.82;98328.94;4181038;28;5820;-64
2022/03/21 09:34:24;;;;;;;;;;;;;;;9.66;57.29;98322.31;4196807;28;5090;-64
2022/03/21 09:36:26;;;;;;;;;;;;;;;9.73;56.58;98319.88;4195995;28;5714;-64
2022/03/21 09:38:28;;;;;;;;;;;;;;;9.74;56.31;98319.78;4198669;28;5827;-64
2022/03/21 09:40:32;;;;;;;;;;;;;;;9.80;56.62;98311.22;4180103;28;5725;-64
2022/03/21 09:42:35;;;;;;;;;;;;;;;9.80;57.27;98313.88;4198513;28;5716;-64
2022/03/21 09:44:37;;;;;;;;;;;;;;;9.55;57.76;98312.81;4198048;28;5697;-64
2022/03/21 09:46:42;;;;;;;;;;;;;;;9.78;56.64;98309.72;4199127;28;5103;-64
2022/03/21 09:48:47;;;;;;;;;;;;;;;9.82;56.64;98309.25;4208327;28;5791;-64
2022/03/21 09:50:51;;;;;;;;;;;;;;;9.99;56.41;98312.06;4198789;28;6394;-64
2022/03/21 09:52:53;;;;;;;;;;;;;;;9.99;56.03;98312.06;4198904;28;5826;-64
2022/03/21 09:54:55;;;;;;;;;;;;;;;10.05;56.12;98304.34;4199261;28;5823;-64
2022/03/21 09:57:02;;;;;;;;;;;;;;;10.08;55.18;98300.56;4195091;28;5795;-64
2022/03/21 09:59:04;;;;;;;;;;;;;;;9.95;55.57;98295.66;4198277;28;5898;-64
2022/03/21 10:01:06;;;;;;;;;;;;;;;10.08;55.13;98295.25;4197447;28;6607;-64
2022/03/21 10:03:08;;;;;;;;;;;;;;;9.71;56.31;98292.81;4198096;28;5712;-61
2022/03/21 10:05:29;;;;;;;;;;;;;;;10.09;55.96;98287.22;4197715;28;5695;-62
2022/03/21 10:07:31;;;;;;;;;;;;;;;10.57;54.67;98290.38;4195050;28;5708;-62
2022/03/21 10:09:32;;;;;;;;;;;;;;;10.48;54.72;98284.19;4198566;28;5696;-62
2022/03/21 10:11:35;;;;;;;;;;;;;;;10.34;55.61;98280.31;4192221;28;5843;-62
2022/03/21 10:13:38;;;;;;;;;;;;;;;10.31;55.92;98279.81;4196438;28;5720;-61
2022/03/21 10:15:42;;;;;;;;;;;;;;;10.46;55.44;98276.41;4198470;28;6402;-61
2022/03/21 10:18:03;;;;;;;;;;;;;;;10.25;56.01;98265.38;4198416;28;6371;-61
2022/03/21 10:20:08;;;;;;;;;;;;;;;10.46;54.72;98279.06;4214429;28;5784;-62
2022/03/21 10:22:43;;;;;;;;;;;;;;;10.54;53.69;98270.34;4191639;28;5856;-61
2022/03/21 10:24:48;;;;;;;;;;;;;;;10.64;54.08;98275.50;4197818;28;5851;-62
2022/03/21 10:26:50;;;;;;;;;;;;;;;10.57;53.34;98279.78;4197298;28;5692;-62
2022/03/21 10:28:54;;;;;;;;;;;;;;;10.64;54.40;98275.50;4193096;28;5803;-61
2022/03/21 10:30:56;;;;;;;;;;;;;;;10.76;54.78;98279.56;4179398;28;5817;-61
2022/03/21 10:32:59;;;;;;;;;;;;;;;10.77;55.18;98282.06;4197633;28;5684;-61
2022/03/21 10:35:14;;;;;;;;;;;;;;;10.71;55.56;98281.84;4196035;28;5696;-61
2022/03/21 10:37:16;;;;;;;;;;;;;;;10.70;55.72;98282.81;4198684;28;5712;-61
2022/03/21 10:39:18;;;;;;;;;;;;;;;10.67;55.78;98283.97;4197761;28;5689;-62
2022/03/21 10:41:34;;;;;;;;;;;;;;;10.53;55.71;98275.78;4197205;28;5721;-62
2022/03/21 10:43:36;;;;;;;;;;;;;;;10.59;54.52;98273.34;4193475;28;6478;-62
2022/03/21 10:45:38;;;;;;;;;;;;;;;10.56;55.42;98272.84;4194296;28;5794;-62
2022/03/21 10:47:53;;;;;;;;;;;;;;;10.71;54.69;98272.09;4191832;28;5792;-61
2022/03/21 10:50:01;;;;;;;;;;;;;;;10.76;54.34;98267.16;4197181;28;5923;-62
2022/03/21 10:52:06;;;;;;;;;;;;;;;10.65;53.75;98267.44;4197391;28;5775;-61
2022/03/21 10:54:08;;;;;;;;;;;;;;;10.66;54.00;98262.97;4198871;28;5791;-62
2022/03/21 10:56:11;;;;;;;;;;;;;;;10.72;54.08;98265.81;4198727;28;5791;-62
2022/03/21 10:58:15;;;;;;;;;;;;;;;10.85;53.41;98257.44;4196722;28;6019;-61
2022/03/21 11:00:22;;;;;;;;;;;;;;;10.99;53.51;98264.78;4197702;28;5863;-61
2022/03/21 11:02:24;;;;;;;;;;;;;;;10.88;53.15;98257.13;4198906;28;5791;-61
2022/03/21 11:04:26;;;;;;;;;;;;;;;10.83;52.68;98254.13;4196135;28;5888;-61
2022/03/21 11:06:32;;;;;;;;;;;;;;;10.67;52.95;98254.88;4199217;28;6461;-61
2022/03/21 11:08:35;;;;;;;;;;;;;;;10.59;52.58;98248.72;4197511;28;5874;-61
2022/03/21 11:10:37;;;;;;;;;;;;;;;10.60;52.20;98253.03;4198704;28;5799;-61
2022/03/21 11:12:44;;;;;;;;;;;;;;;10.98;52.67;98244.56;4196102;28;5817;-61
2022/03/21 11:14:49;;;;;;;;;;;;;;;11.16;51.68;98246.28;4198367;28;5799;-61
2022/03/21 11:16:52;;;;;;;;;;;;;;;11.11;51.70;98251.25;4165172;28;6572;-62
2022/03/21 11:18:56;;;;;;;;;;;;;;;10.72;52.18;98242.00;4196593;28;5791;-61
2022/03/21 11:20:59;;;;;;;;;;;;;;;10.90;52.10;98244.56;4198297;28;5899;-61
2022/03/21 11:23:02;;;;;;;;;;;;;;;11.18;50.11;98237.19;4193912;28;6591;-61
2022/03/21 11:25:06;;;;;;;;;;;;;;;11.24;51.16;98233.09;4198573;28;5193;-61
2022/03/21 11:27:44;;;;;;;;;;;;;;;11.32;50.61;98233.09;4187747;28;5815;-61
2022/03/21 11:30:18;;;;;;;;;;;;;;;11.41;49.21;98231.28;4198925;28;5873;-61
2022/03/21 11:32:38;;;;;;;;;;;;;;;11.45;49.93;98222.88;4184796;28;5941;-61
2022/03/21 11:35:02;;;;;;;;;;;;;;;11.55;50.55;98223.56;4198206;28;5970;-61
2022/03/21 11:37:04;;;;;;;;;;;;;;;11.59;51.02;98224.03;4198848;28;7272;-62
2022/03/21 11:39:05;;;;;;;;;;;;;;;11.35;51.21;98219.53;4197173;28;5811;-62
2022/03/21 11:41:12;;;;;;;;;;;;;;;11.39;51.92;98220.88;4197584;28;5769;-62
2022/03/21 11:43:17;;;;;;;;;;;;;;;11.26;51.19;98215.22;4199692;28;5700;-62
2022/03/21 11:45:34;;;;;;;;;;;;;;;11.36;51.47;98214.09;4183800;28;5732;-62
2022/03/21 11:47:36;;;;;;;;;;;;;;;11.45;51.34;98217.56;4201195;28;5764;-61
2022/03/21 11:49:40;;;;;;;;;;;;;;;11.52;50.84;98220.38;4196764;28;5834;-62
2022/03/21 11:51:44;;;;;;;;;;;;;;;11.53;50.27;98212.25;4196180;28;5692;-61
2022/03/21 11:53:49;;;;;;;;;;;;;;;11.54;49.54;98211.28;4200651;28;5779;-61
2022/03/21 11:55:51;;;;;;;;;;;;;;;11.41;48.04;98202.16;4200332;28;5687;-61
2022/03/21 11:58:38;;;;;;;;;;;;;;;11.49;47.84;98195.06;4215009;28;5690;-61
2022/03/21 12:01:04;;;;;;;;;;;;;;;11.57;48.19;98189.78;4201242;28;5708;-61
2022/03/21 12:03:06;;;;;;;;;;;;;;;11.63;47.73;98191.75;4200226;28;6525;-62
2022/03/21 12:05:09;;;;;;;;;;;;;;;11.79;47.95;98184.81;4199129;28;5890;-62
2022/03/21 12:07:11;;;;;;;;;;;;;;;11.80;47.46;98189.97;4201255;28;5685;-63
2022/03/21 12:09:13;;;;;;;;;;;;;;;11.65;47.92;98183.63;4197512;28;5685;-63
2022/03/21 12:11:50;;;;;;;;;;;;;;;11.49;47.96;98181.00;4198113;28;5728;-63
2022/03/21 12:14:19;;;;;;;;;;;;;;;11.56;47.03;98177.53;4196211;28;5713;-62
2022/03/21 12:16:21;;;;;;;;;;;;;;;11.55;46.74;98170.59;4185097;28;5795;-62
2022/03/21 12:18:58;;;;;;;;;;;;;;;11.53;46.42;98169.88;4197168;28;5659;-63
2022/03/21 12:21:11;;;;;;;;;;;;;;;11.28;46.44;98173.53;4194754;28;6375;-61
2022/03/21 12:23:23;;;;;;;;;;;;;;;11.33;46.51;98165.94;4196975;28;6302;-62
2022/03/21 12:25:28;;;;;;;;;;;;;;;11.59;46.40;98161.31;4197958;28;5089;-62
2022/03/21 12:27:32;;;;;;;;;;;;;;;11.49;46.20;98151.88;4197680;28;5745;-61
2022/03/21 12:29:34;;;;;;;;;;;;;;;11.60;46.74;98157.66;4195988;28;5694;-61
2022/03/21 12:31:35;;;;;;;;;;;;;;;11.74;46.09;98152.66;4196250;28;5738;-61
2022/03/21 12:33:38;;;;;;;;;;;;;;;11.85;46.21;98157.66;4190025;28;5983;-61
2022/03/21 12:35:43;;;;;;;;;;;;;;;11.91;47.41;98149.06;4181550;28;5740;-61
2022/03/21 12:37:44;;;;;;;;;;;;;;;11.54;48.54;98149.53;4198543;28;6366;-61
2022/03/21 12:39:46;;;;;;;;;;;;;;;11.60;49.17;98146.22;4198107;28;5725;-62
2022/03/21 12:41:49;;;;;;;;;;;;;;;11.80;49.38;98136.16;4198531;28;5733;-62
2022/03/21 12:43:54;;;;;;;;;;;;;;;11.83;48.57;98141.09;4193141;28;5722;-62
2022/03/21 12:46:05;;;;;;;;;;;;;;;11.62;48.65;98129.16;4198830;28;5726;-61
2022/03/21 12:48:09;;;;;;;;;;;;;;;11.57;49.51;98136.81;4182897;28;5726;-61
2022/03/21 12:50:19;;;;;;;;;;;;;;;11.77;47.06;98125.84;4199026;28;5704;-61
2022/03/21 12:52:29;;;;;;;;;;;;;;;11.90;47.82;98126.19;4200808;28;5051;-61
2022/03/21 12:54:31;;;;;;;;;;;;;;;11.71;45.96;98127.34;4200353;28;5704;-61
2022/03/21 12:56:33;;;;;;;;;;;;;;;11.78;45.91;98128.34;4200701;28;5707;-61
2022/03/21 12:58:42;;;;;;;;;;;;;;;11.91;46.94;98127.84;4200192;28;5775;-62
2022/03/21 13:00:45;;;;;;;;;;;;;;;11.85;46.69;98120.56;4200537;28;5720;-61
2022/03/21 13:02:47;;;;;;;;;;;;;;;11.84;46.76;98118.91;4200095;28;6343;-60
2022/03/21 13:12:07;;;;;;;;;;;;;;;12.12;45.73;98109.56;4196251;28;5667;-61
2022/03/21 13:14:18;;;;;;;;;;;;;;;12.06;45.57;98106.78;4200080;28;6235;-63
2022/03/21 13:16:22;;;;;;;;;;;;;;;12.15;46.38;98095.97;4199700;28;5685;-63
2022/03/21 13:18:24;;;;;;;;;;;;;;;12.38;45.84;98087.25;4199387;28;5820;-62
2022/03/21 13:20:29;;;;;;;;;;;;;;;12.37;45.77;98091.75;4200045;28;5775;-60
2022/03/21 13:22:32;;;;;;;;;;;;;;;12.26;45.80;98089.47;4198531;28;5926;-62
2022/03/21 13:24:39;;;;;;;;;;;;;;;12.36;45.42;98090.09;4200131;28;5696;-62
2022/03/21 13:26:44;;;;;;;;;;;;;;;12.46;45.71;98084.59;4198938;28;5696;-61
2022/03/21 13:28:47;;;;;;;;;;;;;;;12.40;46.01;98085.25;4199396;28;5783;-61
2022/03/21 13:31:03;;;;;;;;;;;;;;;12.51;45.62;98082.22;4200060;28;5110;-62
2022/03/21 13:33:05;;;;;;;;;;;;;;;12.53;44.39;98074.91;4199382;28;5945;-61
2022/03/21 13:35:07;;;;;;;;;;;;;;;12.38;43.74;98072.19;4199798;28;5832;-61
2022/03/21 13:37:14;;;;;;;;;;;;;;;12.48;44.63;98079.94;4199955;28;6393;-62
2022/03/21 13:39:26;;;;;;;;;;;;;;;12.60;43.58;98077.72;4185730;28;5924;-61
2022/03/21 13:41:28;;;;;;;;;;;;;;;12.68;42.48;98067.84;4190509;28;5760;-61
2022/03/21 13:43:32;;;;;;;;;;;;;;;12.66;43.27;98075.16;4199938;28;5820;-61
2022/03/21 13:45:40;;;;;;;;;;;;;;;12.75;43.82;98070.63;4195129;28;5909;-62
2022/03/21 13:47:47;;;;;;;;;;;;;;;12.76;43.38;98069.63;4199188;28;7723;-61
2022/03/21 13:49:54;;;;;;;;;;;;;;;12.68;42.52;98061.72;4199498;28;5739;-62
2022/03/21 13:51:55;;;;;;;;;;;;;;;12.47;44.10;98065.00;4200068;28;5791;-61
2022/03/21 13:54:10;;;;;;;;;;;;;;;12.67;44.09;98065.38;4199871;28;5693;-61
2022/03/21 13:56:14;;;;;;;;;;;;;;;12.76;43.73;98062.50;4200025;28;5700;-61
2022/03/21 13:58:24;;;;;;;;;;;;;;;12.79;43.51;98059.47;4199146;28;5803;-62
2022/03/21 14:00:38;;;;;;;;;;;;;;;12.56;43.00;98053.34;4200002;28;5771;-61
2022/03/21 14:02:46;;;;;;;;;;;;;;;12.60;43.29;98045.88;4199482;28;6412;-62
2022/03/21 14:04:47;;;;;;;;;;;;;;;12.77;43.24;98039.44;4198702;28;5705;-61
2022/03/21 14:07:01;;;;;;;;;;;;;;;12.89;42.24;98047.81;4199195;28;5811;-62
2022/03/21 14:09:03;;;;;;;;;;;;;;;12.85;41.37;98043.88;4194179;28;5777;-61
2022/03/21 14:11:12;;;;;;;;;;;;;;;12.95;41.35;98042.63;4199133;28;5796;-61
2022/03/21 14:13:16;;;;;;;;;;;;;;;12.96;40.97;98038.16;4192293;28;5810;-61
2022/03/21 14:15:23;;;;;;;;;;;;;;;12.96;40.78;98038.16;4198036;28;5900;-61
2022/03/21 14:17:26;;;;;;;;;;;;;;;12.93;40.76;98033.22;4197245;28;5810;-61
2022/03/21 14:19:28;;;;;;;;;;;;;;;12.94;40.08;98033.03;4197898;28;6540;-62
2022/03/21 14:21:30;;;;;;;;;;;;;;;12.97;40.65;98026.53;4198890;28;5685;-61
2022/03/21 14:23:33;;;;;;;;;;;;;;;12.98;41.42;98021.03;4198475;28;5780;-61
2022/03/21 14:27:55;;;;;;;;;;;;;;;12.86;43.17;98019.81;4202457;28;6509;-60
2022/03/21 14:29:57;;;;;;;;;;;;;;;12.95;43.63;98021.41;4200317;28;5689;-61
2022/03/21 14:31:59;;;;;;;;;;;;;;;12.86;44.01;98019.00;4201804;28;5752;-61
2022/03/21 14:34:02;;;;;;;;;;;;;;;12.86;43.48;98014.50;4201544;28;5779;-61
2022/03/21 14:36:06;;;;;;;;;;;;;;;12.96;44.10;98019.56;4200910;28;5676;-61
2022/03/21 14:38:09;;;;;;;;;;;;;;;12.90;44.33;98017.63;4202177;28;5798;-61
2022/03/21 14:40:13;;;;;;;;;;;;;;;12.99;44.26;98011.25;4201644;28;5790;-61
2022/03/21 14:42:14;;;;;;;;;;;;;;;12.99;43.57;98019.22;4202033;28;6379;-61
2022/03/21 14:44:18;;;;;;;;;;;;;;;12.99;42.77;98005.94;4201999;28;5855;-61
2022/03/21 14:46:21;;;;;;;;;;;;;;;13.01;42.37;98004.75;4198317;28;5696;-61
2022/03/21 14:48:24;;;;;;;;;;;;;;;13.03;42.71;98004.59;4201441;28;5685;-62
2022/03/21 14:50:26;;;;;;;;;;;;;;;13.09;42.43;97995.91;4201628;28;5787;-62
2022/03/21 14:52:28;;;;;;;;;;;;;;;13.04;40.68;97998.28;4200466;28;5696;-61
2022/03/21 14:54:30;;;;;;;;;;;;;;;13.02;39.92;98000.25;4200130;28;5697;-61
2022/03/21 14:56:33;;;;;;;;;;;;;;;12.97;39.03;98003.47;4201801;28;5781;-62
2022/03/21 14:58:37;;;;;;;;;;;;;;;12.91;38.41;97990.06;4201294;28;5783;-62
2022/03/21 15:00:40;;;;;;;;;;;;;;;12.96;38.90;97993.03;4201856;28;5748;-62
2022/03/21 15:02:43;;;;;;;;;;;;;;;12.98;39.09;97989.19;4199560;28;5700;-62
2022/03/21 15:04:44;;;;;;;;;;;;;;;12.98;38.73;97980.41;4200931;28;5713;-62
2022/03/21 15:06:46;;;;;;;;;;;;;;;12.95;39.38;97976.28;4199993;28;5859;-62
2022/03/21 15:08:48;;;;;;;;;;;;;;;12.96;39.90;97987.72;4201031;28;5692;-61
2022/03/21 15:10:50;;;;;;;;;;;;;;;12.99;40.48;97980.22;4201153;28;5787;-62
2022/03/21 15:12:57;;;;;;;;;;;;;;;13.04;41.00;97974.38;4194772;28;5836;-62
2022/03/21 15:14:59;;;;;;;;;;;;;;;13.04;41.41;97977.03;4201629;28;5840;-62
2022/03/21 15:17:00;;;;;;;;;;;;;;;13.11;41.23;97975.28;4199565;28;6374;-62
2022/03/21 15:19:21;;;;;;;;;;;;;;;13.13;41.68;97973.28;4194639;28;5875;-62
2022/03/21 15:21:23;;;;;;;;;;;;;;;13.19;41.71;97972.59;4221324;28;5778;-62
2022/03/21 15:23:25;;;;;;;;;;;;;;;12.89;41.51;97979.63;4200925;28;5700;-62
2022/03/21 15:25:26;;;;;;;;;;;;;;;12.90;42.24;97961.88;4201353;28;5716;-62
2022/03/21 15:27:44;;;;;;;;;;;;;;;12.95;42.41;97967.50;4201294;28;5720;-61
2022/03/21 15:29:46;;;;;;;;;;;;;;;13.15;42.02;97973.13;4200967;28;5693;-61
2022/03/21 15:31:48;;;;;;;;;;;;;;;13.19;42.41;97964.63;4201139;28;5696;-62
2022/03/21 15:33:50;;;;;;;;;;;;;;;13.14;41.71;97961.69;4198912;28;5704;-63
2022/03/21 15:35:52;;;;;;;;;;;;;;;13.00;41.70;97965.94;4197100;28;5818;-62
2022/03/21 15:42:35;;;;;;;;;;;;;;;13.03;41.59;97954.16;4194279;28;5811;-62
2022/03/21 15:44:36;;;;;;;;;;;;;;;13.05;41.56;97957.44;4197207;28;6553;-62
2022/03/21 15:46:39;;;;;;;;;;;;;;;13.08;42.05;97954.44;4196176;28;5872;-62
2022/03/21 15:48:41;;;;;;;;;;;;;;;13.12;41.51;97953.06;4197080;28;5915;-63
2022/03/21 15:50:43;;;;;;;;;;;;;;;13.18;42.47;97951.53;4195557;28;5795;-62
2022/03/21 15:52:46;;;;;;;;;;;;;;;13.29;42.22;97949.28;4197919;28;6995;-63
2022/03/21 15:54:48;;;;;;;;;;;;;;;13.25;42.15;97953.31;4195005;28;5787;-62
2022/03/21 15:56:50;;;;;;;;;;;;;;;13.30;42.24;97939.47;4196358;28;5843;-62
2022/03/21 15:58:52;;;;;;;;;;;;;;;13.29;42.21;97951.94;4197590;28;5823;-62
2022/03/21 16:00:54;;;;;;;;;;;;;;;13.34;42.12;97946.06;4194345;28;5791;-63
2022/03/21 16:02:58;;;;;;;;;;;;;;;13.38;42.07;97948.19;4196622;28;5803;-63
2022/03/21 16:05:00;;;;;;;;;;;;;;;13.27;42.43;97950.47;4197894;28;6532;-63
2022/03/21 16:07:02;;;;;;;;;;;;;;;13.30;42.98;97942.94;4198242;28;5799;-62
2022/03/21 16:09:06;;;;;;;;;;;;;;;13.44;43.11;97945.78;4196387;28;6493;-62
2022/03/21 16:11:09;;;;;;;;;;;;;;;13.37;43.07;97943.88;4195154;28;5799;-62
2022/03/21 16:13:11;;;;;;;;;;;;;;;13.33;42.86;97944.41;4193486;28;5825;-62
2022/03/21 16:15:15;;;;;;;;;;;;;;;13.33;43.25;97947.06;4196885;28;5795;-62
2022/03/21 16:17:19;;;;;;;;;;;;;;;13.44;43.13;97945.78;4197182;28;5863;-62
2022/03/21 16:19:21;;;;;;;;;;;;;;;13.34;43.28;97940.75;4197732;28;5791;-63
2022/03/21 16:21:24;;;;;;;;;;;;;;;13.33;42.99;97947.88;4198160;28;5811;-64
2022/03/21 16:23:26;;;;;;;;;;;;;;;13.28;42.81;97944.97;4192361;28;5121;-64
2022/03/21 16:25:30;;;;;;;;;;;;;;;13.33;43.19;97945.22;4198165;28;5819;-64
2022/03/21 16:27:32;;;;;;;;;;;;;;;13.34;43.10;97946.06;4197067;28;5815;-63
2022/03/21 16:29:33;;;;;;;;;;;;;;;13.29;43.51;97949.28;4196169;28;5819;-63
2022/03/21 16:31:35;;;;;;;;;;;;;;;13.32;43.23;97948.91;4196784;28;5811;-64
2022/03/21 16:33:38;;;;;;;;;;;;;;;13.29;43.40;97951.94;4196410;28;5816;-64
2022/03/21 16:35:39;;;;;;;;;;;;;;;13.30;43.33;97950.91;4196152;28;5804;-64
2022/03/21 16:37:41;;;;;;;;;;;;;;;13.27;43.44;97945.97;4196908;28;5808;-64
2022/03/21 16:39:43;;;;;;;;;;;;;;;13.25;43.68;97948.00;4196864;28;5806;-64
2022/03/21 16:41:44;;;;;;;;;;;;;;;13.11;43.76;97935.47;4195938;28;5795;-64
2022/03/21 16:43:46;;;;;;;;;;;;;;;13.18;43.96;97943.56;4190407;28;6600;-63
2022/03/21 16:45:48;;;;;;;;;;;;;;;13.25;44.07;97944.50;4195689;28;6453;-64
2022/03/21 16:47:52;;;;;;;;;;;;;;;13.28;43.90;97950.28;4196377;28;5875;-65
2022/03/21 16:49:54;;;;;;;;;;;;;;;13.26;44.52;97941.69;4196642;28;5957;-64
2022/03/21 16:51:59;;;;;;;;;;;;;;;13.17;45.08;97948.03;4195466;28;6027;-65
2022/03/21 16:54:01;;;;;;;;;;;;;;;13.19;45.08;97946.06;4195276;28;7767;-64
2022/03/21 16:56:03;;;;;;;;;;;;;;;13.11;46.93;97944.25;4197258;28;6680;-64
2022/03/21 16:58:04;;;;;;;;;;;;;;;13.12;46.07;97948.56;4196660;28;5801;-64
2022/03/21 17:00:12;;;;;;;;;;;;;;;13.15;45.65;97952.72;4196922;28;5783;-64
2022/03/21 17:02:16;;;;;;;;;;;;;;;13.15;45.20;97947.41;4196009;28;5814;-64
2022/03/21 17:04:19;;;;;;;;;;;;;;;13.15;44.98;97952.72;4189461;28;5904;-64
2022/03/21 17:06:21;;;;;;;;;;;;;;;13.15;44.85;97947.41;4196942;28;5790;-64
2022/03/21 17:08:33;;;;;;;;;;;;;;;13.12;44.57;97951.22;4196764;28;6586;-64
2022/03/21 17:10:35;;;;;;;;;;;;;;;13.08;44.90;97951.78;4196518;28;5792;-63
2022/03/21 17:12:36;;;;;;;;;;;;;;;13.08;45.31;97955.25;4191927;28;5783;-63
2022/03/21 17:14:39;;;;;;;;;;;;;;;12.92;45.33;97949.28;4196416;28;5815;-63
2022/03/21 17:16:44;;;;;;;;;;;;;;;12.83;45.30;97949.34;4196639;28;5808;-63
2022/03/21 17:23:08;;;;;;;;;;;;;;;12.86;46.84;97948.16;4196644;28;6062;-63
2022/03/21 17:25:10;;;;;;;;;;;;;;;12.81;47.12;97951.34;4196842;28;5772;-63
2022/03/21 17:27:12;;;;;;;;;;;;;;;12.62;49.63;97957.16;4196942;28;6375;-63
2022/03/21 17:29:14;;;;;;;;;;;;;;;12.78;48.50;97957.00;4196736;28;5720;-64
2022/03/21 17:31:16;;;;;;;;;;;;;;;12.68;50.09;97960.91;4196753;28;6571;-63
2022/03/21 17:33:19;;;;;;;;;;;;;;;12.71;49.92;97960.56;4196454;28;5887;-63